Meteo Giornale » Osservazioni meteo Francia » Orleans
ore: 08:30 - Osservazioni Meteo Orleans
Lat. 47° 59' N Lon. 1° 45' E Alt. 126 metri s.l.m.
15 °C
Sereno
Temp. 24 Ore
12 °C
26 °C
Nord
3.7 Km/h
Dew point 13 °C
Umidità 87 %
Visibilità 10 Km
Il sole sorge alle ore 07:11
Il sole tramonta alle ore 20:34
| Data e Ora | Cielo e Fenomeni | T °C | DP °C | Um. % | Pres. hPa | Vis. km | Vento km/h | |
|---|---|---|---|---|---|---|---|---|
| Oggi h: 08:30 | Sereno | 15 | 13 | 87 | 1022 | 10 | N 3.7 | |
| Oggi h: 08:00 | Poco Nuvoloso | 13 | 12 | 93 | 1022 | 10 | N 3.7 | |
| Oggi h: 07:30 | Sereno | 12 | 12 | 100 | 1022 | 10 | N/NE 7.4 | |
| Oggi h: 07:00 | Sereno | 13 | 12 | 93 | 1021 | 10 | N 5.5 | |
| Oggi h: 06:30 | Sereno | 13 | 12 | 93 | 1021 | 10 | N 5.5 | |
| Oggi h: 06:00 | Sereno | 13 | 12 | 93 | 1021 | 10 | N 5.5 | |
| Oggi h: 05:30 | Sereno | 14 | 12 | 87 | 1021 | 10 | N 3.7 | |
| Oggi h: 05:00 | Sereno | 14 | 12 | 87 | 1021 | 10 | N 3.7 | |
| Oggi h: 04:30 | Molto Nuvoloso | 14 | 13 | 93 | 1021 | 10 | N 3.7 | |
| Oggi h: 04:00 | Molto Nuvoloso | 14 | 13 | 93 | 1021 | 10 | N 5.5 | |
| Oggi h: 03:30 | Nuvoloso | 15 | 13 | 87 | 1021 | 10 | N 5.5 | |
| Oggi h: 03:00 | Nuvoloso | 15 | 13 | 87 | 1021 | 10 | N 3.7 | |
| Oggi h: 02:30 | Molto Nuvoloso | 16 | 13 | 82 | 1021 | 10 | N 3.7 | |
| Oggi h: 02:00 | Coperto | 16 | 13 | 82 | 1021 | 10 | N 5.5 | |
| Oggi h: 01:30 | Sereno | 17 | 14 | 82 | 1021 | 10 | N 3.7 | |
| Oggi h: 01:00 | Sereno | 16 | 13 | 82 | 1021 | 10 | N 3.7 | |
| Oggi h: 00:30 | Sereno | 15 | 13 | 87 | 1021 | 10 | N 0 | |
| Oggi h: 00:00 | Sereno | 15 | 13 | 87 | 1021 | 10 | N 0 | |
| Ieri h: 23:30 | Sereno | 16 | 13 | 82 | 1021 | 10 | N 1.8 | |
| Ieri h: 23:00 | Sereno | 16 | 13 | 82 | 1020 | 10 | N 3.7 | |
| Ieri h: 22:30 | Sereno | 18 | 13 | 72 | 1020 | 10 | N 5.5 | |
| Ieri h: 22:00 | Sereno | 19 | 13 | 68 | 1020 | 10 | N 3.7 | |
| Ieri h: 21:30 | Sereno | 18 | 13 | 72 | 1020 | 10 | NO 7.4 | |
| Ieri h: 21:00 | Sereno | 19 | 12 | 63 | 1019 | 10 | NO 9.3 | |
| Ieri h: 20:30 | Sereno | 20 | 13 | 64 | 1019 | 10 | NO 9.3 | |
| Ieri h: 20:00 | Sereno | 22 | 13 | 56 | 1019 | 10 | NO 13 | |
| Ieri h: 19:30 | Sereno | 23 | 12 | 49 | 1019 | 10 | NO 18.5 | |
| Ieri h: 19:00 | Sereno | 24 | 11 | 43 | 1018 | 10 | O 20.3 | |
| Ieri h: 18:30 | Sereno | 24 | 10 | 41 | 1018 | 10 | O 27.8 | |
| Ieri h: 18:00 | Sereno | 25 | 10 | 38 | 1018 | 10 | O 27.8 | |
| Ieri h: 17:30 | Sereno | 26 | 11 | 39 | 1018 | 10 | O 25.9 | |
| Ieri h: 17:00 | Sereno | 24 | 11 | 43 | 1018 | 10 | O 27.8 | |
| Ieri h: 16:30 | Sereno | 25 | 12 | 44 | 1018 | 10 | O 29.6 | |
| Ieri h: 16:00 | Sereno | 25 | 12 | 44 | 1018 | 10 | O 29.6 | |
| Ieri h: 15:30 | Sereno | 25 | 11 | 41 | 1018 | 10 | O 33.3 | |
| Ieri h: 15:00 | Sereno | 25 | 12 | 44 | 1018 | 10 | O 35.2 | |
| Ieri h: 14:30 | Molto Nuvoloso | 24 | 12 | 47 | 1018 | 10 | O 31.5 | |
| Ieri h: 14:00 | Molto Nuvoloso | 24 | 12 | 47 | 1018 | 10 | O 31.5 | |
| Ieri h: 13:30 | Molto Nuvoloso | 23 | 12 | 49 | 1017 | 10 | O 37 | |
| Ieri h: 13:00 | Nuvoloso | 23 | 14 | 56 | 1017 | 10 | O 33.3 | |
| Ieri h: 12:30 | Poco Nuvoloso | 21 | 15 | 68 | 1017 | 10 | O 33.3 | |
| Ieri h: 12:00 | Molto Nuvoloso | 18 | 17 | 93 | 1017 | 10 | O 27.8 | |
| Ieri h: 11:30 | Molto Nuvoloso | 19 | 14 | 72 | 1017 | 10 | O 37 | |
| Ieri h: 11:00 | Molto Nuvoloso | 20 | 14 | 68 | 1017 | 10 | O 35.2 | |
| Ieri h: 10:30 | Molto Nuvoloso | 21 | 15 | 68 | 1017 | 10 | O/SO 35.2 | |
| Ieri h: 10:00 | Molto Nuvoloso | 19 | 15 | 77 | 1016 | 10 | O/SO 33.3 | |



